sensor_id;sensor_type;location;lat;lon;timestamp;pressure;altitude;pressure_sealevel;temperature;humidity
47430;BME280;33181;49.246;7.372;2022-10-31T00:01:17;99290.31;;;12.24;87.83
47430;BME280;33181;49.246;7.372;2022-10-31T00:03:44;99297.97;;;12.27;88.11
47430;BME280;33181;49.246;7.372;2022-10-31T00:06:09;99301.44;;;12.27;87.49
47430;BME280;33181;49.246;7.372;2022-10-31T00:08:35;99299.63;;;12.28;87.67
47430;BME280;33181;49.246;7.372;2022-10-31T00:11:01;99297.97;;;12.27;87.41
47430;BME280;33181;49.246;7.372;2022-10-31T00:13:27;99299.53;;;12.29;87.45
47430;BME280;33181;49.246;7.372;2022-10-31T00:15:53;99302.41;;;12.26;87.07
47430;BME280;33181;49.246;7.372;2022-10-31T00:18:18;99293.75;;;12.24;87.35
47430;BME280;33181;49.246;7.372;2022-10-31T00:20:44;99303.13;;;12.17;87.18
47430;BME280;33181;49.246;7.372;2022-10-31T00:23:11;99303.22;;;12.16;87.66
47430;BME280;33181;49.246;7.372;2022-10-31T00:25:38;99292.69;;;12.16;87.62
47430;BME280;33181;49.246;7.372;2022-10-31T00:28:06;99294.34;;;12.17;87.51
47430;BME280;33181;49.246;7.372;2022-10-31T00:30:33;99292.69;;;12.16;87.36
47430;BME280;33181;49.246;7.372;2022-10-31T00:32:59;99297.00;;;12.17;87.19
47430;BME280;33181;49.246;7.372;2022-10-31T00:35:25;99292.00;;;12.14;87.27
47430;BME280;33181;49.246;7.372;2022-10-31T00:37:52;99292.00;;;12.14;87.08
47430;BME280;33181;49.246;7.372;2022-10-31T00:40:18;99291.72;;;12.17;87.08
47430;BME280;33181;49.246;7.372;2022-10-31T00:42:43;99292.59;;;12.17;86.87
47430;BME280;33181;49.246;7.372;2022-10-31T00:45:10;99287.66;;;12.13;87.02
47430;BME280;33181;49.246;7.372;2022-10-31T00:47:35;99287.66;;;12.13;86.96
47430;BME280;33181;49.246;7.372;2022-10-31T00:50:03;99295.56;;;12.13;86.97
47430;BME280;33181;49.246;7.372;2022-10-31T00:52:29;99300.00;;;12.12;86.89
47430;BME280;33181;49.246;7.372;2022-10-31T00:54:55;99295.44;;;12.14;86.97
47430;BME280;33181;49.246;7.372;2022-10-31T00:57:21;99295.56;;;12.01;86.96
47430;BME280;33181;49.246;7.372;2022-10-31T00:59:47;99290.66;;;11.97;87.30
47430;BME280;33181;49.246;7.372;2022-10-31T01:02:12;99294.44;;;11.81;88.44
47430;BME280;33181;49.246;7.372;2022-10-31T01:04:38;99290.88;;;11.82;88.74
47430;BME280;33181;49.246;7.372;2022-10-31T01:07:04;99292.09;;;11.90;88.74
47430;BME280;33181;49.246;7.372;2022-10-31T01:09:30;99290.06;;;11.93;88.35
47430;BME280;33181;49.246;7.372;2022-10-31T01:11:55;99290.78;;;11.95;88.42
47430;BME280;33181;49.246;7.372;2022-10-31T01:14:21;99295.31;;;11.93;87.88
47430;BME280;33181;49.246;7.372;2022-10-31T01:16:47;99294.13;;;11.97;87.91
47430;BME280;33181;49.246;7.372;2022-10-31T01:19:13;99297.72;;;11.96;87.84
47430;BME280;33181;49.246;7.372;2022-10-31T01:21:38;99295.91;;;11.97;87.78
47430;BME280;33181;49.246;7.372;2022-10-31T01:24:04;99294.00;;;11.99;87.83
47430;BME280;33181;49.246;7.372;2022-10-31T01:26:32;99292.22;;;11.99;87.84
47430;BME280;33181;49.246;7.372;2022-10-31T01:29:01;99288.75;;;11.99;87.49
47430;BME280;33181;49.246;7.372;2022-10-31T01:31:30;99284.28;;;11.88;87.75
47430;BME280;33181;49.246;7.372;2022-10-31T01:33:58;99281.03;;;11.73;88.71
47430;BME280;33181;49.246;7.372;2022-10-31T01:36:36;99282.09;;;11.71;89.45
47430;BME280;33181;49.246;7.372;2022-10-31T01:39:12;99282.72;;;11.74;89.48
47430;BME280;33181;49.246;7.372;2022-10-31T01:41:41;99284.97;;;11.79;89.23
47430;BME280;33181;49.246;7.372;2022-10-31T01:49:32;99283.00;;;11.94;88.64
47430;BME280;33181;49.246;7.372;2022-10-31T01:55:00;99284.78;;;11.93;88.56
47430;BME280;33181;49.246;7.372;2022-10-31T01:57:27;99282.75;;;11.97;88.62
47430;BME280;33181;49.246;7.372;2022-10-31T01:59:59;99277.16;;;12.01;88.44
47430;BME280;33181;49.246;7.372;2022-10-31T02:02:27;99273.41;;;12.04;88.38
47430;BME280;33181;49.246;7.372;2022-10-31T02:04:55;99274.28;;;12.04;88.04
47430;BME280;33181;49.246;7.372;2022-10-31T02:07:36;99269.84;;;12.05;88.07
47430;BME280;33181;49.246;7.372;2022-10-31T02:10:04;99275.22;;;12.03;87.81
47430;BME280;33181;49.246;7.372;2022-10-31T02:12:31;99273.53;;;12.02;87.95
47430;BME280;33181;49.246;7.372;2022-10-31T02:14:59;99265.66;;;12.02;88.00
47430;BME280;33181;49.246;7.372;2022-10-31T02:17:25;99270.78;;;12.04;88.09
47430;BME280;33181;49.246;7.372;2022-10-31T02:20:23;99260.88;;;12.08;87.75
47430;BME280;33181;49.246;7.372;2022-10-31T02:38:56;99249.91;;;11.78;89.33
47430;BME280;33181;49.246;7.372;2022-10-31T02:41:59;99245.88;;;11.74;89.17
47430;BME280;33181;49.246;7.372;2022-10-31T02:47:27;99238.84;;;11.86;89.15
47430;BME280;33181;49.246;7.372;2022-10-31T02:50:21;99243.16;;;11.87;89.30
47430;BME280;33181;49.246;7.372;2022-10-31T02:52:51;99236.22;;;11.86;89.22
47430;BME280;33181;49.246;7.372;2022-10-31T02:58:14;99239.03;;;11.60;90.92
47430;BME280;33181;49.246;7.372;2022-10-31T03:09:18;99243.84;;;11.67;90.58
47430;BME280;33181;49.246;7.372;2022-10-31T03:17:03;99236.41;;;11.60;90.69
47430;BME280;33181;49.246;7.372;2022-10-31T03:19:39;99240.94;;;11.58;90.81
47430;BME280;33181;49.246;7.372;2022-10-31T03:22:16;99240.56;;;11.63;90.67
47430;BME280;33181;49.246;7.372;2022-10-31T03:24:43;99241.22;;;11.67;90.71
47430;BME280;33181;49.246;7.372;2022-10-31T03:27:14;99239.16;;;11.70;90.37
47430;BME280;33181;49.246;7.372;2022-10-31T03:29:44;99243.38;;;11.73;89.99
47430;BME280;33181;49.246;7.372;2022-10-31T03:32:38;99246.47;;;11.67;90.09
47430;BME280;33181;49.246;7.372;2022-10-31T03:35:08;99250.16;;;11.64;89.59
47430;BME280;33181;49.246;7.372;2022-10-31T03:37:36;99241.69;;;11.60;89.67
47430;BME280;33181;49.246;7.372;2022-10-31T03:40:06;99242.16;;;11.54;89.97
47430;BME280;33181;49.246;7.372;2022-10-31T03:42:38;99245.13;;;11.50;90.38
47430;BME280;33181;49.246;7.372;2022-10-31T03:45:38;99244.41;;;11.48;90.62
47430;BME280;33181;49.246;7.372;2022-10-31T03:48:05;99244.28;;;11.49;89.92
47430;BME280;33181;49.246;7.372;2022-10-31T03:54:04;99240.44;;;11.42;89.97
47430;BME280;33181;49.246;7.372;2022-10-31T03:56:40;99234.59;;;11.39;89.80
47430;BME280;33181;49.246;7.372;2022-10-31T03:59:32;99242.81;;;11.34;89.87
47430;BME280;33181;49.246;7.372;2022-10-31T04:02:06;99238.53;;;11.33;90.00
47430;BME280;33181;49.246;7.372;2022-10-31T04:04:34;99252.63;;;11.32;89.84
47430;BME280;33181;49.246;7.372;2022-10-31T04:07:01;99250.72;;;11.34;90.19
47430;BME280;33181;49.246;7.372;2022-10-31T04:09:32;99251.31;;;11.37;89.91
47430;BME280;33181;49.246;7.372;2022-10-31T04:12:00;99248.56;;;11.39;89.91
47430;BME280;33181;49.246;7.372;2022-10-31T04:14:30;99246.41;;;11.33;89.91
47430;BME280;33181;49.246;7.372;2022-10-31T04:16:57;99246.63;;;11.30;90.21
47430;BME280;33181;49.246;7.372;2022-10-31T04:19:23;99240.31;;;11.32;89.94
47430;BME280;33181;49.246;7.372;2022-10-31T04:21:48;99245.56;;;11.32;89.87
47430;BME280;33181;49.246;7.372;2022-10-31T04:24:14;99239.13;;;11.36;89.71
47430;BME280;33181;49.246;7.372;2022-10-31T04:26:40;99234.81;;;11.35;89.50
47430;BME280;33181;49.246;7.372;2022-10-31T04:29:05;99235.44;;;11.39;89.39
47430;BME280;33181;49.246;7.372;2022-10-31T04:31:31;99233.75;;;11.38;88.93
47430;BME280;33181;49.246;7.372;2022-10-31T04:33:57;99234.00;;;11.35;89.09
47430;BME280;33181;49.246;7.372;2022-10-31T04:36:23;99242.34;;;11.29;89.36
47430;BME280;33181;49.246;7.372;2022-10-31T04:38:48;99241.47;;;11.28;89.58
47430;BME280;33181;49.246;7.372;2022-10-31T04:41:14;99233.00;;;11.25;89.48
47430;BME280;33181;49.246;7.372;2022-10-31T04:43:40;99230.59;;;11.22;89.45
47430;BME280;33181;49.246;7.372;2022-10-31T04:46:06;99224.84;;;11.17;89.94
47430;BME280;33181;49.246;7.372;2022-10-31T04:48:31;99229.50;;;11.13;89.94
47430;BME280;33181;49.246;7.372;2022-10-31T04:51:00;99224.97;;;11.15;89.80
47430;BME280;33181;49.246;7.372;2022-10-31T04:53:27;99230.13;;;11.17;89.63
47430;BME280;33181;49.246;7.372;2022-10-31T04:55:53;99221.50;;;11.14;89.86
47430;BME280;33181;49.246;7.372;2022-10-31T04:58:18;99217.06;;;11.15;90.18
47430;BME280;33181;49.246;7.372;2022-10-31T05:00:44;99216.25;;;11.14;89.60
47430;BME280;33181;49.246;7.372;2022-10-31T05:03:10;99214.44;;;11.15;89.30
47430;BME280;33181;49.246;7.372;2022-10-31T05:05:36;99212.41;;;11.07;89.55
47430;BME280;33181;49.246;7.372;2022-10-31T05:08:01;99210.59;;;11.08;89.22
47430;BME280;33181;49.246;7.372;2022-10-31T05:10:29;99208.22;;;11.05;89.38
47430;BME280;33181;49.246;7.372;2022-10-31T05:12:58;99194.94;;;11.06;89.45
47430;BME280;33181;49.246;7.372;2022-10-31T05:15:26;99192.94;;;11.10;89.17
47430;BME280;33181;49.246;7.372;2022-10-31T05:17:53;99189.91;;;11.03;89.10
47430;BME280;33181;49.246;7.372;2022-10-31T05:20:23;99198.28;;;10.97;89.90
47430;BME280;33181;49.246;7.372;2022-10-31T05:22:51;99186.91;;;10.97;89.93
47430;BME280;33181;49.246;7.372;2022-10-31T05:25:19;99192.06;;;10.98;89.92
47430;BME280;33181;49.246;7.372;2022-10-31T05:27:48;99182.38;;;10.99;89.71
47430;BME280;33181;49.246;7.372;2022-10-31T05:30:19;99186.91;;;10.97;89.47
47430;BME280;33181;49.246;7.372;2022-10-31T05:32:48;99183.91;;;10.90;89.33
47430;BME280;33181;49.246;7.372;2022-10-31T05:35:18;99184.88;;;10.89;89.38
47430;BME280;33181;49.246;7.372;2022-10-31T05:37:45;99178.19;;;10.85;89.10
47430;BME280;33181;49.246;7.372;2022-10-31T05:40:13;99176.59;;;10.82;89.47
47430;BME280;33181;49.246;7.372;2022-10-31T05:42:40;99179.00;;;10.85;89.55
47430;BME280;33181;49.246;7.372;2022-10-31T05:45:15;99178.03;;;10.86;89.49
47430;BME280;33181;49.246;7.372;2022-10-31T05:47:42;99175.09;;;10.91;89.30
47430;BME280;33181;49.246;7.372;2022-10-31T05:50:09;99174.59;;;10.86;89.19
47430;BME280;33181;49.246;7.372;2022-10-31T05:52:35;99172.78;;;10.86;89.13
47430;BME280;33181;49.246;7.372;2022-10-31T05:55:01;99181.63;;;10.85;88.98
47430;BME280;33181;49.246;7.372;2022-10-31T05:57:29;99177.38;;;10.72;89.26
47430;BME280;33181;49.246;7.372;2022-10-31T05:59:54;99171.44;;;10.70;89.50
47430;BME280;33181;49.246;7.372;2022-10-31T06:02:20;99168.44;;;10.74;89.29
47430;BME280;33181;49.246;7.372;2022-10-31T06:04:47;99168.22;;;10.77;88.93
47430;BME280;33181;49.246;7.372;2022-10-31T06:07:13;99173.94;;;10.71;88.66
47430;BME280;33181;49.246;7.372;2022-10-31T06:09:39;99169.25;;;10.63;89.80
47430;BME280;33181;49.246;7.372;2022-10-31T06:12:05;99167.69;;;10.61;90.13
47430;BME280;33181;49.246;7.372;2022-10-31T06:14:30;99165.41;;;10.56;90.23
47430;BME280;33181;49.246;7.372;2022-10-31T06:16:56;99168.03;;;10.56;90.46
47430;BME280;33181;49.246;7.372;2022-10-31T06:19:22;99168.75;;;10.58;90.51
47430;BME280;33181;49.246;7.372;2022-10-31T06:21:48;99171.88;;;10.63;90.28
47430;BME280;33181;49.246;7.372;2022-10-31T06:24:13;99167.09;;;10.57;90.03
47430;BME280;33181;49.246;7.372;2022-10-31T06:26:40;99166.34;;;10.55;90.70
47430;BME280;33181;49.246;7.372;2022-10-31T06:29:06;99166.34;;;10.55;90.93
47430;BME280;33181;49.246;7.372;2022-10-31T06:31:32;99162.97;;;10.42;91.27
47430;BME280;33181;49.246;7.372;2022-10-31T06:33:58;99164.13;;;10.38;92.06
47430;BME280;33181;49.246;7.372;2022-10-31T06:36:24;99157.81;;;10.40;92.03
47430;BME280;33181;49.246;7.372;2022-10-31T06:38:49;99154.25;;;10.41;91.99
47430;BME280;33181;49.246;7.372;2022-10-31T06:41:15;99160.84;;;10.47;91.75
47430;BME280;33181;49.246;7.372;2022-10-31T06:43:41;99171.72;;;10.54;91.64
47430;BME280;33181;49.246;7.372;2022-10-31T06:46:07;99171.16;;;10.61;91.51
47430;BME280;33181;49.246;7.372;2022-10-31T06:48:32;99178.56;;;10.67;90.94
47430;BME280;33181;49.246;7.372;2022-10-31T06:50:59;99184.34;;;10.73;90.90
47430;BME280;33181;49.246;7.372;2022-10-31T06:53:27;99187.22;;;10.81;91.02
47430;BME280;33181;49.246;7.372;2022-10-31T06:55:56;99188.56;;;10.86;90.64
47430;BME280;33181;49.246;7.372;2022-10-31T06:58:22;99188.94;;;10.93;90.68
47430;BME280;33181;49.246;7.372;2022-10-31T07:00:48;99197.09;;;11.01;90.39
47430;BME280;33181;49.246;7.372;2022-10-31T07:03:14;99190.53;;;11.07;90.69
47430;BME280;33181;49.246;7.372;2022-10-31T07:05:42;99190.53;;;11.18;90.30
47430;BME280;33181;49.246;7.372;2022-10-31T07:08:12;99194.38;;;11.25;89.79
47430;BME280;33181;49.246;7.372;2022-10-31T07:10:40;99182.69;;;11.29;89.64
47430;BME280;33181;49.246;7.372;2022-10-31T07:13:12;99189.00;;;11.27;89.43
47430;BME280;33181;49.246;7.372;2022-10-31T07:15:39;99188.06;;;11.17;90.08
47430;BME280;33181;49.246;7.372;2022-10-31T07:18:08;99189.84;;;11.16;89.08
47430;BME280;33181;49.246;7.372;2022-10-31T07:20:34;99188.97;;;11.16;89.64
47430;BME280;33181;49.246;7.372;2022-10-31T07:23:00;99188.38;;;11.12;89.89
47430;BME280;33181;49.246;7.372;2022-10-31T07:25:26;99187.09;;;11.18;90.06
47430;BME280;33181;49.246;7.372;2022-10-31T07:27:52;99190.91;;;11.25;90.16
47430;BME280;33181;49.246;7.372;2022-10-31T07:30:18;99192.75;;;11.35;89.99
47430;BME280;33181;49.246;7.372;2022-10-31T07:32:48;99181.50;;;11.45;89.60
47430;BME280;33181;49.246;7.372;2022-10-31T07:35:23;99183.53;;;11.52;89.29
47430;BME280;33181;49.246;7.372;2022-10-31T07:37:49;99186.19;;;11.64;89.24
47430;BME280;33181;49.246;7.372;2022-10-31T07:40:16;99192.75;;;11.69;88.64
47430;BME280;33181;49.246;7.372;2022-10-31T07:42:45;99200.06;;;11.77;88.94
47430;BME280;33181;49.246;7.372;2022-10-31T07:45:15;99196.94;;;11.83;89.20
47430;BME280;33181;49.246;7.372;2022-10-31T07:47:44;99190.75;;;11.95;88.40
47430;BME280;33181;49.246;7.372;2022-10-31T07:50:17;99196.59;;;11.99;88.44
47430;BME280;33181;49.246;7.372;2022-10-31T07:52:43;99195.97;;;12.06;88.26
47430;BME280;33181;49.246;7.372;2022-10-31T07:55:10;99197.03;;;12.15;88.19
47430;BME280;33181;49.246;7.372;2022-10-31T07:57:36;99206.50;;;12.18;87.76
47430;BME280;33181;49.246;7.372;2022-10-31T08:00:08;99203.25;;;12.25;87.76
47430;BME280;33181;49.246;7.372;2022-10-31T08:02:34;99200.38;;;12.28;87.43
47430;BME280;33181;49.246;7.372;2022-10-31T08:05:00;99211.00;;;12.38;86.69
47430;BME280;33181;49.246;7.372;2022-10-31T08:07:28;99204.44;;;12.33;86.10
47430;BME280;33181;49.246;7.372;2022-10-31T08:09:55;99204.78;;;12.39;86.54
47430;BME280;33181;49.246;7.372;2022-10-31T08:12:21;99206.19;;;12.43;86.33
47430;BME280;33181;49.246;7.372;2022-10-31T08:14:47;99202.81;;;12.52;86.27
47430;BME280;33181;49.246;7.372;2022-10-31T08:17:13;99192.88;;;12.56;86.02
47430;BME280;33181;49.246;7.372;2022-10-31T08:19:38;99187.56;;;12.67;85.72
47430;BME280;33181;49.246;7.372;2022-10-31T08:22:04;99204.16;;;12.79;85.19
47430;BME280;33181;49.246;7.372;2022-10-31T08:24:30;99197.69;;;12.83;84.90
47430;BME280;33181;49.246;7.372;2022-10-31T08:26:56;99196.31;;;12.89;84.83
47430;BME280;33181;49.246;7.372;2022-10-31T08:29:21;99194.00;;;12.95;84.45
47430;BME280;33181;49.246;7.372;2022-10-31T08:31:47;99195.44;;;12.99;84.96
47430;BME280;33181;49.246;7.372;2022-10-31T08:34:13;99190.34;;;13.08;84.59
47430;BME280;33181;49.246;7.372;2022-10-31T08:36:39;99182.75;;;13.14;84.37
47430;BME280;33181;49.246;7.372;2022-10-31T08:39:04;99186.25;;;13.15;84.37
47430;BME280;33181;49.246;7.372;2022-10-31T08:41:30;99187.06;;;13.15;83.56
47430;BME280;33181;49.246;7.372;2022-10-31T08:43:56;99188.81;;;13.26;83.68
47430;BME280;33181;49.246;7.372;2022-10-31T08:46:22;99178.88;;;13.39;83.17
47430;BME280;33181;49.246;7.372;2022-10-31T08:48:48;99178.00;;;13.50;83.21
47430;BME280;33181;49.246;7.372;2022-10-31T08:51:14;99175.13;;;13.63;83.21
47430;BME280;33181;49.246;7.372;2022-10-31T08:53:40;99164.00;;;13.59;82.63
47430;BME280;33181;49.246;7.372;2022-10-31T08:56:06;99166.16;;;13.44;83.69
47430;BME280;33181;49.246;7.372;2022-10-31T08:58:32;99169.75;;;13.43;84.04
47430;BME280;33181;49.246;7.372;2022-10-31T09:01:00;99166.28;;;13.43;84.77
47430;BME280;33181;49.246;7.372;2022-10-31T09:03:29;99159.94;;;13.55;84.79
47430;BME280;33181;49.246;7.372;2022-10-31T09:05:59;99158.06;;;13.77;84.59
47430;BME280;33181;49.246;7.372;2022-10-31T09:08:25;99146.06;;;13.94;83.96
47430;BME280;33181;49.246;7.372;2022-10-31T09:10:52;99148.56;;;14.05;83.25
47430;BME280;33181;49.246;7.372;2022-10-31T09:13:21;99139.13;;;14.12;83.44
47430;BME280;33181;49.246;7.372;2022-10-31T09:15:48;99142.47;;;14.24;82.76
47430;BME280;33181;49.246;7.372;2022-10-31T09:18:19;99144.72;;;14.28;82.76
47430;BME280;33181;49.246;7.372;2022-10-31T09:20:47;99144.28;;;14.43;82.05
47430;BME280;33181;49.246;7.372;2022-10-31T09:23:16;99140.16;;;14.59;82.33
47430;BME280;33181;49.246;7.372;2022-10-31T09:25:42;99137.63;;;14.77;81.58
47430;BME280;33181;49.246;7.372;2022-10-31T09:28:15;99142.34;;;14.93;80.95
47430;BME280;33181;49.246;7.372;2022-10-31T09:30:41;99134.72;;;14.80;80.01
47430;BME280;33181;49.246;7.372;2022-10-31T09:33:11;99133.72;;;14.81;81.34
47430;BME280;33181;49.246;7.372;2022-10-31T09:35:38;99123.44;;;14.98;81.54
47430;BME280;33181;49.246;7.372;2022-10-31T09:38:11;99125.72;;;15.20;80.73
47430;BME280;33181;49.246;7.372;2022-10-31T09:43:50;99100.66;;;15.15;79.73
47430;BME280;33181;49.246;7.372;2022-10-31T09:52:27;99119.13;;;15.71;79.18
47430;BME280;33181;49.246;7.372;2022-10-31T09:55:08;99119.44;;;15.96;78.63
47430;BME280;33181;49.246;7.372;2022-10-31T09:57:40;99122.94;;;16.14;77.62
47430;BME280;33181;49.246;7.372;2022-10-31T10:00:14;99124.97;;;16.38;77.43
47430;BME280;33181;49.246;7.372;2022-10-31T10:06:12;99118.28;;;16.88;74.53
47430;BME280;33181;49.246;7.372;2022-10-31T10:08:39;99121.06;;;17.04;74.03
47430;BME280;33181;49.246;7.372;2022-10-31T10:11:31;99126.16;;;17.24;72.72
47430;BME280;33181;49.246;7.372;2022-10-31T10:14:45;99122.75;;;17.40;72.71
47430;BME280;33181;49.246;7.372;2022-10-31T10:20:54;99117.88;;;17.61;71.28
47430;BME280;33181;49.246;7.372;2022-10-31T10:23:50;99115.72;;;17.56;71.16
47430;BME280;33181;49.246;7.372;2022-10-31T10:26:29;99113.56;;;17.68;70.68
47430;BME280;33181;49.246;7.372;2022-10-31T10:29:16;99118.69;;;17.88;70.72
47430;BME280;33181;49.246;7.372;2022-10-31T10:31:44;99110.25;;;18.09;69.83
47430;BME280;33181;49.246;7.372;2022-10-31T10:34:31;99102.28;;;18.00;70.26
47430;BME280;33181;49.246;7.372;2022-10-31T10:37:11;99092.44;;;17.93;71.76
47430;BME280;33181;49.246;7.372;2022-10-31T10:39:46;99097.78;;;18.09;70.07
47430;BME280;33181;49.246;7.372;2022-10-31T10:42:15;99087.16;;;18.09;70.20
47430;BME280;33181;49.246;7.372;2022-10-31T10:45:14;99087.28;;;17.99;70.57
47430;BME280;33181;49.246;7.372;2022-10-31T10:48:43;99073.34;;;18.05;71.64
47430;BME280;33181;49.246;7.372;2022-10-31T10:51:36;99080.03;;;18.10;71.47
47430;BME280;33181;49.246;7.372;2022-10-31T11:00:25;99065.91;;;18.25;72.15
47430;BME280;33181;49.246;7.372;2022-10-31T11:02:52;99060.72;;;18.16;72.67
47430;BME280;33181;49.246;7.372;2022-10-31T11:05:37;99066.56;;;18.19;72.75
47430;BME280;33181;49.246;7.372;2022-10-31T11:08:05;99063.09;;;18.35;72.37
47430;BME280;33181;49.246;7.372;2022-10-31T11:10:33;99057.09;;;18.49;71.96
47430;BME280;33181;49.246;7.372;2022-10-31T11:16:09;99046.78;;;18.46;71.37
47430;BME280;33181;49.246;7.372;2022-10-31T11:18:46;99055.44;;;18.48;71.69
47430;BME280;33181;49.246;7.372;2022-10-31T11:21:24;99058.59;;;18.60;71.38
47430;BME280;33181;49.246;7.372;2022-10-31T11:26:39;99047.94;;;18.85;71.16
47430;BME280;33181;49.246;7.372;2022-10-31T11:29:25;99048.28;;;18.90;70.57
47430;BME280;33181;49.246;7.372;2022-10-31T11:31:56;99039.41;;;18.97;69.78
47430;BME280;33181;49.246;7.372;2022-10-31T11:34:36;99028.09;;;19.04;70.00
47430;BME280;33181;49.246;7.372;2022-10-31T11:37:32;99038.41;;;19.07;69.95
47430;BME280;33181;49.246;7.372;2022-10-31T11:40:05;99026.78;;;18.99;70.59
47430;BME280;33181;49.246;7.372;2022-10-31T11:42:40;99028.78;;;18.97;70.10
47430;BME280;33181;49.246;7.372;2022-10-31T11:45:33;99032.44;;;18.96;70.86
47430;BME280;33181;49.246;7.372;2022-10-31T11:48:01;99025.63;;;19.02;70.04
47430;BME280;33181;49.246;7.372;2022-10-31T11:50:36;99023.63;;;19.04;71.85
47430;BME280;33181;49.246;7.372;2022-10-31T11:53:04;99019.75;;;19.07;70.84
47430;BME280;33181;49.246;7.372;2022-10-31T11:55:39;99014.09;;;19.10;70.88
47430;BME280;33181;49.246;7.372;2022-10-31T11:58:24;99012.44;;;19.17;71.04
47430;BME280;33181;49.246;7.372;2022-10-31T12:00:55;99015.03;;;19.25;70.19
47430;BME280;33181;49.246;7.372;2022-10-31T12:03:51;99012.38;;;19.25;70.15
47430;BME280;33181;49.246;7.372;2022-10-31T12:06:30;98997.75;;;19.21;70.18
47430;BME280;33181;49.246;7.372;2022-10-31T12:08:57;98999.38;;;19.30;69.77
47430;BME280;33181;49.246;7.372;2022-10-31T12:23:08;99000.56;;;19.19;69.43
47430;BME280;33181;49.246;7.372;2022-10-31T12:26:23;98995.25;;;19.19;69.05
47430;BME280;33181;49.246;7.372;2022-10-31T12:35:56;98985.50;;;19.43;69.15
47430;BME280;33181;49.246;7.372;2022-10-31T12:41:21;98982.69;;;20.13;66.92
47430;BME280;33181;49.246;7.372;2022-10-31T12:46:59;98970.44;;;20.27;64.45
47430;BME280;33181;49.246;7.372;2022-10-31T12:50:12;98959.03;;;20.48;65.16
47430;BME280;33181;49.246;7.372;2022-10-31T12:56:05;98945.41;;;21.47;61.88
47430;BME280;33181;49.246;7.372;2022-10-31T12:58:54;98932.41;;;21.87;62.00
47430;BME280;33181;49.246;7.372;2022-10-31T13:01:35;98929.19;;;21.70;60.58
47430;BME280;33181;49.246;7.372;2022-10-31T13:04:19;98915.19;;;21.32;61.98
47430;BME280;33181;49.246;7.372;2022-10-31T13:06:56;98913.50;;;21.09;62.21
47430;BME280;33181;49.246;7.372;2022-10-31T13:09:40;98918.06;;;21.15;62.97
47430;BME280;33181;49.246;7.372;2022-10-31T13:12:15;98912.41;;;21.40;62.74
47430;BME280;33181;49.246;7.372;2022-10-31T13:14:52;98901.22;;;21.15;61.66
47430;BME280;33181;49.246;7.372;2022-10-31T13:17:42;98895.47;;;20.81;61.64
47430;BME280;33181;49.246;7.372;2022-10-31T13:20:40;98891.63;;;20.69;62.64
47430;BME280;33181;49.246;7.372;2022-10-31T13:23:32;98893.28;;;20.55;63.18
47430;BME280;33181;49.246;7.372;2022-10-31T13:26:10;98888.28;;;20.37;62.70
47430;BME280;33181;49.246;7.372;2022-10-31T13:28:54;98886.78;;;20.20;63.36
47430;BME280;33181;49.246;7.372;2022-10-31T13:31:23;98888.06;;;20.09;64.60
47430;BME280;33181;49.246;7.372;2022-10-31T13:34:14;98886.28;;;19.87;64.84
47430;BME280;33181;49.246;7.372;2022-10-31T13:45:24;98864.00;;;19.34;67.90
47430;BME280;33181;49.246;7.372;2022-10-31T13:50:42;98858.84;;;19.32;68.19
47430;BME280;33181;49.246;7.372;2022-10-31T13:55:47;98860.19;;;19.28;68.49
47430;BME280;33181;49.246;7.372;2022-10-31T13:58:23;98846.81;;;19.13;69.08
47430;BME280;33181;49.246;7.372;2022-10-31T14:01:19;98834.94;;;19.01;70.04
47430;BME280;33181;49.246;7.372;2022-10-31T14:03:56;98827.91;;;19.00;69.84
47430;BME280;33181;49.246;7.372;2022-10-31T14:09:39;98791.41;;;18.86;70.26
47430;BME280;33181;49.246;7.372;2022-10-31T14:12:22;98784.53;;;18.91;70.04
47430;BME280;33181;49.246;7.372;2022-10-31T14:14:56;98770.63;;;18.81;70.31
47430;BME280;33181;49.246;7.372;2022-10-31T14:17:26;98760.41;;;18.93;70.68
47430;BME280;33181;49.246;7.372;2022-10-31T14:20:21;98750.47;;;18.87;70.28
47430;BME280;33181;49.246;7.372;2022-10-31T14:22:47;98762.19;;;18.78;70.64
47430;BME280;33181;49.246;7.372;2022-10-31T14:25:32;98755.41;;;18.67;71.18
47430;BME280;33181;49.246;7.372;2022-10-31T14:28:01;98744.22;;;18.71;70.81
47430;BME280;33181;49.246;7.372;2022-10-31T14:30:29;98753.03;;;18.80;70.63
47430;BME280;33181;49.246;7.372;2022-10-31T14:32:59;98767.47;;;18.86;70.57
47430;BME280;33181;49.246;7.372;2022-10-31T14:35:53;98798.81;;;18.98;69.93
47430;BME280;33181;49.246;7.372;2022-10-31T14:42:01;98761.19;;;19.02;70.51
47430;BME280;33181;49.246;7.372;2022-10-31T14:48:00;98765.16;;;19.06;69.05
47430;BME280;33181;49.246;7.372;2022-10-31T14:51:19;98740.53;;;19.04;69.00
47430;BME280;33181;49.246;7.372;2022-10-31T14:53:56;98731.84;;;19.10;69.15
47430;BME280;33181;49.246;7.372;2022-10-31T14:56:37;98737.50;;;19.07;69.29
47430;BME280;33181;49.246;7.372;2022-10-31T14:59:12;98735.16;;;19.12;69.06
47430;BME280;33181;49.246;7.372;2022-10-31T15:01:40;98729.94;;;19.18;68.85
47430;BME280;33181;49.246;7.372;2022-10-31T15:04:22;98726.81;;;19.15;68.61
47430;BME280;33181;49.246;7.372;2022-10-31T15:07:11;98726.00;;;19.14;68.40
47430;BME280;33181;49.246;7.372;2022-10-31T15:09:40;98723.13;;;19.16;68.95
47430;BME280;33181;49.246;7.372;2022-10-31T15:12:35;98739.19;;;19.08;69.74
47430;BME280;33181;49.246;7.372;2022-10-31T15:15:20;98736.22;;;19.03;70.23
47430;BME280;33181;49.246;7.372;2022-10-31T15:17:51;98739.72;;;19.03;69.87
47430;BME280;33181;49.246;7.372;2022-10-31T15:20:25;98740.25;;;18.98;69.94
47430;BME280;33181;49.246;7.372;2022-10-31T15:22:52;98738.09;;;18.94;70.51
47430;BME280;33181;49.246;7.372;2022-10-31T15:25:24;98742.50;;;18.87;70.64
47430;BME280;33181;49.246;7.372;2022-10-31T15:27:51;98740.53;;;18.81;70.96
47430;BME280;33181;49.246;7.372;2022-10-31T15:30:27;98745.75;;;18.74;71.10
47430;BME280;33181;49.246;7.372;2022-10-31T15:32:53;98756.72;;;18.71;72.16